Time;durP1;ratioP1;P1;durP2;ratioP2;P2;SDS_P1;SDS_P2;PMS_P1;PMS_P2;Temp;Humidity;BMP_temperature;BMP_pressure;BME280_temperature;BME280_humidity;BME280_pressure;Samples;Min_cycle;Max_cycle;Signal;HPM_P1;HPM_P2
2022/10/31 00:00:20;;;;;;;23.70;16.05;;;11.10;99.90;;;;;;4980113;28;20043;-78
2022/10/31 00:02:45;;;;;;;31.45;18.50;;;11.10;99.90;;;;;;4987831;28;20039;-79
2022/10/31 00:05:11;;;;;;;25.85;16.90;;;11.00;99.90;;;;;;4971906;28;20050;-79
2022/10/31 00:07:37;;;;;;;26.15;16.10;;;11.00;99.90;;;;;;4964421;28;20035;-79
2022/10/31 00:10:02;;;;;;;20.55;15.63;;;10.90;99.90;;;;;;4943224;28;20050;-79
2022/10/31 00:12:28;;;;;;;31.08;17.35;;;10.90;99.90;;;;;;4971580;28;20046;-79
2022/10/31 00:14:54;;;;;;;26.50;18.88;;;10.80;99.90;;;;;;4972677;28;20080;-79
2022/10/31 00:17:19;;;;;;;24.02;17.60;;;10.80;99.90;;;;;;4936454;29;20573;-79
2022/10/31 00:19:45;;;;;;;24.38;18.75;;;10.80;99.90;;;;;;4968707;28;20090;-79
2022/10/31 00:22:10;;;;;;;20.92;16.67;;;10.80;99.90;;;;;;4968676;28;20130;-79
2022/10/31 00:24:36;;;;;;;34.78;20.38;;;10.70;99.90;;;;;;4927369;29;20079;-79
2022/10/31 00:27:02;;;;;;;35.90;20.98;;;10.60;99.90;;;;;;4960107;28;20405;-79
2022/10/31 00:29:27;;;;;;;25.70;19.08;;;10.70;99.90;;;;;;4963479;28;20102;-79
2022/10/31 00:31:53;;;;;;;27.67;19.70;;;10.70;99.90;;;;;;4956178;28;20042;-79
2022/10/31 00:34:18;;;;;;;31.13;20.40;;;10.70;99.90;;;;;;4946161;28;20051;-79
2022/10/31 00:36:44;;;;;;;44.25;21.42;;;10.70;99.90;;;;;;4959155;28;20051;-78
2022/10/31 00:39:09;;;;;;;36.88;21.67;;;10.70;99.90;;;;;;4918746;28;20031;-79
2022/10/31 00:41:35;;;;;;;28.30;19.85;;;10.60;99.90;;;;;;4943478;29;20442;-79
2022/10/31 00:44:01;;;;;;;28.33;19.80;;;10.60;99.90;;;;;;4963750;28;20062;-79
2022/10/31 00:46:26;;;;;;;30.23;20.95;;;10.60;99.90;;;;;;4965961;28;20043;-79
2022/10/31 00:48:52;;;;;;;33.83;21.00;;;10.60;99.90;;;;;;4957328;28;20039;-79
2022/10/31 00:51:18;;;;;;;24.77;18.10;;;10.60;99.90;;;;;;4927693;29;20043;-79
2022/10/31 00:53:43;;;;;;;26.45;18.13;;;10.50;99.90;;;;;;4951143;28;20035;-78
2022/10/31 00:56:09;;;;;;;29.48;17.77;;;10.50;99.90;;;;;;4943430;28;20451;-79
2022/10/31 00:58:34;;;;;;;21.02;16.75;;;10.50;99.90;;;;;;4963800;28;20035;-79
2022/10/31 01:01:00;;;;;;;27.15;18.00;;;10.40;99.90;;;;;;4936523;28;20137;-78
2022/10/31 01:03:31;;;;;;;26.55;17.70;;;10.50;99.90;;;;;;4938546;29;20095;-79
2022/10/31 01:06:03;;;;;;;25.60;17.58;;;10.40;99.90;;;;;;4964006;28;20038;-79
2022/10/31 01:08:29;;;;;;;29.33;18.00;;;10.40;99.90;;;;;;4920434;29;20492;-79
2022/10/31 01:11:04;;;;;;;47.28;20.75;;;10.40;99.90;;;;;;4931739;29;20130;-79
2022/10/31 01:13:29;;;;;;;45.75;20.88;;;10.50;99.90;;;;;;4927537;29;20058;-79
2022/10/31 01:15:59;;;;;;;22.42;17.50;;;10.40;99.90;;;;;;4952943;29;20038;-79
2022/10/31 01:18:26;;;;;;;23.67;17.20;;;10.40;99.90;;;;;;4944493;29;20099;-78
2022/10/31 01:21:05;;;;;;;26.50;17.25;;;10.40;99.90;;;;;;4936611;29;20043;-79
2022/10/31 01:23:32;;;;;;;24.98;16.67;;;10.40;99.90;;;;;;4920091;28;20034;-79
2022/10/31 01:26:02;;;;;;;31.90;16.75;;;10.40;99.90;;;;;;4966875;28;20082;-79
2022/10/31 01:28:28;;;;;;;29.35;18.15;;;10.40;99.90;;;;;;4966816;28;20043;-78
2022/10/31 01:30:54;;;;;;;23.15;16.50;;;10.40;99.90;;;;;;4978007;28;20130;-78
2022/10/31 01:33:19;;;;;;;25.75;17.60;;;10.40;99.90;;;;;;4952702;28;20039;-78
2022/10/31 01:35:45;;;;;;;32.38;18.92;;;10.40;99.90;;;;;;4951901;29;20039;-78
2022/10/31 01:38:10;;;;;;;33.83;19.50;;;10.40;99.90;;;;;;4946567;28;20431;-78
2022/10/31 01:40:36;;;;;;;24.60;16.20;;;10.40;99.90;;;;;;4961271;28;20035;-78
2022/10/31 01:43:01;;;;;;;25.05;16.42;;;10.40;99.90;;;;;;4978200;28;20110;-78
2022/10/31 01:45:27;;;;;;;23.88;17.42;;;10.40;99.90;;;;;;4958766;28;20047;-78
2022/10/31 01:47:52;;;;;;;24.25;15.15;;;10.40;99.90;;;;;;4950834;29;20561;-78
2022/10/31 01:50:39;;;;;;;18.30;14.57;;;10.40;99.90;;;;;;4951274;28;20580;-78
2022/10/31 01:53:08;;;;;;;34.05;16.55;;;10.30;99.90;;;;;;4959659;28;20105;-78
2022/10/31 01:55:38;;;;;;;23.80;14.82;;;10.30;99.90;;;;;;4963375;28;20043;-78
2022/10/31 01:58:13;;;;;;;23.00;13.40;;;10.30;99.90;;;;;;4961887;28;20039;-78
2022/10/31 02:00:41;;;;;;;21.10;13.45;;;10.20;99.90;;;;;;4968021;28;20090;-78
2022/10/31 02:03:07;;;;;;;23.35;14.15;;;10.20;99.90;;;;;;4957941;28;20390;-78
2022/10/31 02:05:33;;;;;;;24.42;15.48;;;10.10;99.90;;;;;;4973926;28;20049;-78
2022/10/31 02:08:17;;;;;;;24.50;14.18;;;10.10;99.90;;;;;;4960474;28;20039;-78
2022/10/31 02:10:43;;;;;;;17.75;12.90;;;10.10;99.90;;;;;;4959214;28;20051;-78
2022/10/31 02:13:10;;;;;;;22.50;15.38;;;10.00;99.90;;;;;;4950053;28;20121;-78
2022/10/31 02:15:37;;;;;;;22.50;15.93;;;10.00;99.90;;;;;;4989862;28;20494;-78
2022/10/31 02:18:04;;;;;;;21.90;15.77;;;10.00;99.90;;;;;;4989816;28;20524;-78
2022/10/31 02:20:39;;;;;;;20.75;15.95;;;10.00;99.90;;;;;;4956793;28;20048;-78
2022/10/31 02:23:32;;;;;;;21.80;14.57;;;10.10;99.90;;;;;;4979478;28;20066;-78
2022/10/31 02:26:07;;;;;;;;;;;10.00;99.90;;;;;;4958538;28;20061;-78
2022/10/31 02:28:58;;;;;;;16.73;12.50;;;10.00;99.90;;;;;;4951013;29;19918;-78
2022/10/31 02:31:48;;;;;;;16.83;11.75;;;10.00;99.90;;;;;;4951154;28;20531;-78
2022/10/31 02:34:22;;;;;;;15.70;11.00;;;9.90;99.90;;;;;;4931499;29;20043;-78
2022/10/31 02:37:06;;;;;;;17.33;13.68;;;9.90;99.90;;;;;;4946743;28;20091;-78
2022/10/31 02:40:16;;;;;;;21.17;15.13;;;9.80;99.90;;;;;;4964284;28;20042;-78
2022/10/31 02:43:03;;;;;;;22.15;14.23;;;9.80;99.90;;;;;;4962052;28;20050;-78
2022/10/31 02:45:32;;;;;;;25.52;15.35;;;9.80;99.90;;;;;;4950810;29;20043;-78
2022/10/31 02:48:08;;;;;;;25.67;16.98;;;9.80;99.90;;;;;;4950444;29;20094;-78
2022/10/31 02:50:37;;;;;;;22.88;15.45;;;9.80;99.90;;;;;;4951573;28;20122;-78
2022/10/31 02:53:03;;;;;;;19.83;14.07;;;9.80;99.90;;;;;;4943221;28;20135;-78
2022/10/31 02:55:28;;;;;;;17.02;13.32;;;9.80;99.90;;;;;;4973044;28;20118;-78
2022/10/31 02:58:02;;;;;;;24.88;15.00;;;9.70;99.90;;;;;;4984700;28;20035;-78
2022/10/31 03:00:34;;;;;;;19.17;13.63;;;9.70;99.90;;;;;;4967870;28;20049;-78
2022/10/31 03:03:30;;;;;;;18.42;14.23;;;9.60;99.90;;;;;;4961002;28;20034;-78
2022/10/31 03:06:17;;;;;;;26.35;15.80;;;9.60;99.90;;;;;;4977314;28;20106;-78
2022/10/31 03:08:55;;;;;;;26.02;16.92;;;9.50;99.90;;;;;;4934270;29;20130;-78
2022/10/31 03:11:26;;;;;;;27.75;16.85;;;9.50;99.90;;;;;;4950292;29;20047;-78
2022/10/31 03:14:07;;;;;;;27.60;17.88;;;9.50;99.90;;;;;;4957211;28;20051;-78
2022/10/31 03:16:54;;;;;;;26.92;17.65;;;9.50;99.90;;;;;;4941019;28;20121;-78
2022/10/31 03:19:27;;;;;;;37.42;18.20;;;9.50;99.90;;;;;;4940166;28;20062;-78
2022/10/31 03:21:59;;;;;;;26.52;18.58;;;9.50;99.90;;;;;;4948440;28;20046;-78
2022/10/31 03:24:28;;;;;;;28.10;19.23;;;9.50;99.90;;;;;;4972907;28;20042;-78
2022/10/31 03:26:59;;;;;;;20.23;15.00;;;9.50;99.90;;;;;;4946109;28;20051;-78
2022/10/31 03:29:29;;;;;;;24.67;16.50;;;9.50;99.90;;;;;;4982926;28;20070;-78
2022/10/31 03:31:59;;;;;;;30.60;16.98;;;9.50;99.90;;;;;;4918077;29;20545;-78
2022/10/31 03:34:25;;;;;;;23.17;15.70;;;9.50;99.90;;;;;;4933908;29;20052;-78
2022/10/31 03:36:55;;;;;;;20.40;15.70;;;9.40;99.90;;;;;;4930916;28;20517;-78
2022/10/31 03:39:23;;;;;;;20.17;15.13;;;9.40;99.90;;;;;;4894096;29;20114;-78
2022/10/31 03:41:56;;;;;;;25.70;16.48;;;9.40;99.90;;;;;;4911432;29;20044;-78
2022/10/31 03:44:23;;;;;;;19.33;14.98;;;9.40;99.90;;;;;;4917513;29;20039;-78
2022/10/31 03:46:49;;;;;;;38.80;19.52;;;9.30;99.90;;;;;;4915929;29;20047;-78
2022/10/31 03:49:16;;;;;;;25.13;16.90;;;9.30;99.90;;;;;;4910955;29;20051;-77
2022/10/31 03:51:59;;;;;;;20.63;14.93;;;9.30;99.90;;;;;;4933848;29;20152;-78
2022/10/31 03:54:37;;;;;;;18.52;14.45;;;9.10;99.90;;;;;;4917046;29;20051;-78
2022/10/31 03:57:37;;;;;;;27.23;15.73;;;9.20;99.90;;;;;;4904121;29;20040;-78
2022/10/31 04:00:07;;;;;;;25.00;16.08;;;9.10;99.90;;;;;;4930200;29;20054;-78
2022/10/31 04:02:38;;;;;;;19.23;14.90;;;9.00;99.90;;;;;;4917444;29;20071;-78
2022/10/31 04:05:05;;;;;;;21.80;16.88;;;9.00;99.90;;;;;;4916297;29;20091;-78
2022/10/31 04:07:35;;;;;;;36.85;18.27;;;9.00;99.90;;;;;;4917483;29;20458;-78
2022/10/31 04:10:04;;;;;;;34.42;18.58;;;8.90;99.90;;;;;;4917472;29;20518;-78
2022/10/31 04:12:32;;;;;;;34.88;18.23;;;8.90;99.90;;;;;;4924718;29;20040;-78
2022/10/31 04:15:00;;;;;;;18.45;15.23;;;8.90;99.90;;;;;;4917312;29;20055;-78
2022/10/31 04:17:31;;;;;;;31.95;17.60;;;8.80;99.90;;;;;;4926575;29;20039;-78
2022/10/31 04:20:00;;;;;;;18.95;15.98;;;8.80;99.90;;;;;;4931459;29;20047;-78
2022/10/31 04:22:25;;;;;;;24.63;19.52;;;8.80;99.90;;;;;;4906309;29;20052;-78
2022/10/31 04:24:51;;;;;;;36.92;20.92;;;8.80;99.90;;;;;;4898476;29;20051;-78
2022/10/31 04:27:16;;;;;;;33.15;20.75;;;8.80;99.90;;;;;;4898542;29;20043;-78
2022/10/31 04:29:42;;;;;;;36.78;20.50;;;8.80;99.90;;;;;;4918912;28;20043;-78
2022/10/31 04:32:08;;;;;;;31.00;18.77;;;8.80;99.90;;;;;;4984137;28;20042;-78
2022/10/31 04:34:33;;;;;;;28.45;19.67;;;8.80;99.90;;;;;;4952335;29;20126;-78
2022/10/31 04:36:59;;;;;;;29.95;19.73;;;8.70;99.90;;;;;;4952062;29;20047;-78
2022/10/31 04:39:24;;;;;;;30.38;17.00;;;8.70;99.90;;;;;;4954670;28;20105;-78
2022/10/31 04:41:50;;;;;;;19.38;15.23;;;8.70;99.90;;;;;;4961133;28;20065;-78
2022/10/31 04:44:16;;;;;;;20.98;16.05;;;8.60;99.90;;;;;;4982318;28;20043;-78
2022/10/31 04:46:41;;;;;;;28.83;19.40;;;8.60;99.90;;;;;;4954474;28;20102;-78
2022/10/31 04:49:07;;;;;;;43.75;23.17;;;8.60;99.90;;;;;;4921997;28;20402;-78
2022/10/31 04:51:33;;;;;;;51.28;23.70;;;8.60;99.90;;;;;;4983389;28;20042;-78
2022/10/31 04:53:58;;;;;;;52.13;23.55;;;8.60;99.90;;;;;;4971606;28;20039;-78
2022/10/31 04:56:24;;;;;;;26.85;18.95;;;8.60;99.90;;;;;;4950454;28;20043;-78
2022/10/31 04:58:49;;;;;;;28.00;19.15;;;8.60;99.90;;;;;;4952943;28;20442;-78
2022/10/31 05:01:15;;;;;;;68.65;25.80;;;8.50;99.90;;;;;;4960745;28;20040;-78
2022/10/31 05:03:41;;;;;;;49.40;24.98;;;8.50;99.90;;;;;;4952855;28;20462;-78
2022/10/31 05:06:07;;;;;;;48.35;23.48;;;8.50;99.90;;;;;;4955105;28;20067;-78
2022/10/31 05:08:33;;;;;;;32.78;21.13;;;8.50;99.90;;;;;;4949432;28;20085;-78
2022/10/31 05:11:03;;;;;;;37.10;22.88;;;8.50;99.90;;;;;;4963054;28;20067;-78
2022/10/31 05:13:29;;;;;;;71.10;29.15;;;8.40;99.90;;;;;;4944252;29;20047;-78
2022/10/31 05:15:55;;;;;;;102.53;31.80;;;8.50;99.90;;;;;;4961203;28;20039;-78
2022/10/31 05:18:20;;;;;;;123.53;33.45;;;8.50;99.90;;;;;;4972909;28;20405;-78
2022/10/31 05:20:46;;;;;;;113.70;35.80;;;8.50;99.90;;;;;;4966545;28;20049;-78
2022/10/31 05:23:12;;;;;;;78.55;29.13;;;8.50;99.90;;;;;;4980503;28;20556;-78
2022/10/31 05:25:39;;;;;;;112.35;33.70;;;8.50;99.90;;;;;;4949793;28;20065;-78
2022/10/31 05:28:05;;;;;;;123.18;32.58;;;8.50;99.90;;;;;;4964707;28;20122;-78
2022/10/31 05:30:32;;;;;;;85.90;29.25;;;8.50;99.90;;;;;;4959486;28;20126;-78
2022/10/31 05:32:58;;;;;;;162.32;37.30;;;8.50;99.90;;;;;;4945010;29;20051;-78
2022/10/31 05:35:29;;;;;;;226.48;48.08;;;8.60;99.90;;;;;;4963125;28;20512;-78
2022/10/31 05:37:55;;;;;;;123.25;34.65;;;8.60;99.90;;;;;;4961466;28;20042;-78
2022/10/31 05:40:21;;;;;;;92.13;31.13;;;8.60;99.90;;;;;;4982445;28;20035;-78
2022/10/31 05:42:50;;;;;;;91.88;32.10;;;8.60;99.90;;;;;;4982260;28;20041;-78
2022/10/31 05:45:17;;;;;;;75.40;30.13;;;8.50;99.90;;;;;;4979332;28;20043;-78
2022/10/31 05:47:49;;;;;;;36.13;24.50;;;8.50;99.90;;;;;;4957487;28;20541;-78
2022/10/31 05:50:15;;;;;;;49.35;24.05;;;8.50;99.90;;;;;;4936166;29;20106;-78
2022/10/31 05:52:40;;;;;;;47.30;23.67;;;8.40;99.90;;;;;;4935897;29;20546;-78
2022/10/31 05:55:06;;;;;;;58.90;25.60;;;8.40;99.90;;;;;;4935619;29;20071;-78
2022/10/31 05:57:32;;;;;;;62.33;24.52;;;8.40;99.90;;;;;;4957956;28;20093;-78
2022/10/31 05:59:58;;;;;;;46.40;22.77;;;8.30;99.90;;;;;;4953181;28;20426;-78
2022/10/31 06:02:23;;;;;;;24.63;18.45;;;8.30;99.90;;;;;;4961794;28;20054;-78
2022/10/31 06:04:49;;;;;;;23.02;18.25;;;8.30;99.90;;;;;;4985593;28;20539;-78
2022/10/31 06:07:14;;;;;;;45.63;22.08;;;8.30;99.90;;;;;;4973803;28;20049;-78
2022/10/31 06:09:40;;;;;;;24.67;16.88;;;8.20;99.90;;;;;;4972356;28;20038;-78
2022/10/31 06:12:05;;;;;;;64.15;24.60;;;8.20;99.90;;;;;;4961915;28;20079;-78
2022/10/31 06:14:31;;;;;;;52.72;24.92;;;8.10;99.90;;;;;;4952223;29;20433;-78
2022/10/31 06:16:57;;;;;;;52.53;23.58;;;8.10;99.90;;;;;;4946884;29;20040;-78
2022/10/31 06:19:22;;;;;;;66.32;25.88;;;8.10;99.90;;;;;;4950925;28;20030;-77
2022/10/31 06:21:48;;;;;;;75.50;25.65;;;8.10;99.90;;;;;;4959557;28;20565;-77
2022/10/31 06:24:14;;;;;;;75.00;26.77;;;8.10;99.90;;;;;;4937136;28;20050;-77
2022/10/31 06:26:40;;;;;;;53.17;24.42;;;8.00;99.90;;;;;;4975616;28;20055;-77
2022/10/31 06:29:06;;;;;;;109.93;30.75;;;8.00;99.90;;;;;;4965333;28;20478;-78
2022/10/31 06:31:31;;;;;;;123.82;32.30;;;8.00;99.90;;;;;;4962316;28;20043;-78
2022/10/31 06:33:57;;;;;;;131.20;32.47;;;8.10;99.90;;;;;;4970195;28;20050;-78
2022/10/31 06:36:22;;;;;;;156.65;34.65;;;8.00;99.90;;;;;;4954452;29;20039;-78
2022/10/31 06:38:48;;;;;;;184.90;37.67;;;8.00;99.90;;;;;;4969024;28;20438;-78
2022/10/31 06:41:14;;;;;;;106.78;31.42;;;8.00;99.90;;;;;;4977501;28;20035;-78
2022/10/31 06:43:39;;;;;;;113.72;29.13;;;7.90;99.90;;;;;;4961845;28;20051;-78
2022/10/31 06:46:05;;;;;;;74.90;26.27;;;7.90;99.90;;;;;;4930369;29;20079;-78
2022/10/31 06:48:32;;;;;;;78.00;27.02;;;7.90;99.90;;;;;;4953953;28;20485;-77
2022/10/31 06:51:01;;;;;;;52.92;21.58;;;7.80;99.90;;;;;;4977765;28;20051;-77
2022/10/31 06:53:29;;;;;;;30.33;19.10;;;7.80;99.90;;;;;;4972816;28;20066;-78
2022/10/31 06:55:56;;;;;;;85.10;26.27;;;7.80;99.90;;;;;;4941319;29;20102;-78
2022/10/31 06:58:21;;;;;;;76.47;25.45;;;7.80;99.90;;;;;;4976536;28;20533;-78
2022/10/31 07:00:47;;;;;;;58.85;24.02;;;7.80;99.90;;;;;;4969207;28;20032;-78
2022/10/31 07:03:15;;;;;;;46.97;21.17;;;7.80;99.90;;;;;;4960992;28;20054;-78
2022/10/31 07:05:42;;;;;;;80.30;26.10;;;7.70;99.90;;;;;;4953652;29;20039;-78
2022/10/31 07:08:10;;;;;;;26.63;18.35;;;7.70;99.90;;;;;;4960561;28;20043;-78
2022/10/31 07:10:37;;;;;;;30.92;18.75;;;7.70;99.90;;;;;;4970058;28;20048;-78
2022/10/31 07:13:05;;;;;;;32.63;18.65;;;7.70;99.90;;;;;;4944230;28;20552;-78
2022/10/31 07:15:37;;;;;;;42.17;22.63;;;7.80;99.90;;;;;;4939298;29;20043;-78
2022/10/31 07:18:05;;;;;;;55.20;27.20;;;7.80;99.90;;;;;;4971219;28;20130;-78
2022/10/31 07:20:32;;;;;;;38.97;25.70;;;7.80;99.90;;;;;;4940282;28;20458;-77
2022/10/31 07:22:57;;;;;;;78.75;30.63;;;7.90;99.90;;;;;;4929781;29;20049;-79
2022/10/31 07:25:24;;;;;;;58.22;31.25;;;7.90;99.90;;;;;;4958250;28;20133;-79
2022/10/31 07:27:50;;;;;;;101.35;34.47;;;8.00;99.90;;;;;;4936378;29;20050;-79
2022/10/31 07:30:18;;;;;;;73.70;31.80;;;8.10;99.90;;;;;;4995870;22;20047;-78
2022/10/31 07:32:46;;;;;;;68.65;32.50;;;8.10;99.90;;;;;;4975858;28;20043;-78
2022/10/31 07:35:41;;;;;;;69.53;32.75;;;8.10;99.90;;;;;;4994028;28;20039;-82
2022/10/31 07:38:37;;;;;;;71.93;32.42;;;8.20;99.90;;;;;;4992673;28;20120;-80
2022/10/31 07:41:38;;;;;;;66.18;31.85;;;8.20;99.90;;;;;;4970351;28;20038;-80
2022/10/31 07:44:17;;;;;;;63.38;33.70;;;8.30;99.90;;;;;;4965321;28;20050;-81
2022/10/31 07:46:49;;;;;;;60.67;34.75;;;8.40;99.90;;;;;;4962318;28;20093;-80
2022/10/31 07:49:27;;;;;;;53.78;33.17;;;8.40;99.90;;;;;;4972995;28;20043;-80
2022/10/31 07:52:07;;;;;;;74.97;38.80;;;8.50;99.90;;;;;;4973018;28;20400;-80
2022/10/31 07:55:08;;;;;;;81.70;40.58;;;8.50;99.90;;;;;;4968200;28;20054;-81
2022/10/31 07:57:43;;;;;;;86.85;40.28;;;8.60;99.90;;;;;;4964628;28;20042;-81
2022/10/31 08:00:15;;;;;;;83.35;38.88;;;8.70;99.90;;;;;;4953068;28;20125;-81
2022/10/31 08:02:57;;;;;;;53.85;34.38;;;8.80;99.90;;;;;;4946985;28;20536;-80
2022/10/31 08:05:30;;;;;;;66.20;36.03;;;8.90;99.90;;;;;;4956583;28;20182;-78
2022/10/31 08:07:57;;;;;;;58.13;35.58;;;8.90;99.90;;;;;;4967676;28;20038;-79
2022/10/31 08:10:29;;;;;;;51.65;34.47;;;8.90;99.90;;;;;;4959086;28;20205;-79
2022/10/31 08:13:04;;;;;;;51.33;33.33;;;9.00;99.90;;;;;;4962238;28;20043;-79
2022/10/31 08:15:30;;;;;;;69.88;37.83;;;9.10;99.90;;;;;;4956471;28;20043;-79
2022/10/31 08:18:00;;;;;;;84.57;38.75;;;9.20;99.90;;;;;;4953058;28;20038;-79
2022/10/31 08:20:26;;;;;;;70.35;38.58;;;9.30;99.90;;;;;;4955191;28;20039;-79
2022/10/31 08:22:54;;;;;;;63.78;37.90;;;9.30;99.90;;;;;;4961646;28;20101;-79
2022/10/31 08:25:19;;;;;;;53.65;35.28;;;9.40;99.90;;;;;;4951604;28;20505;-79
2022/10/31 08:27:53;;;;;;;44.80;32.92;;;9.40;99.90;;;;;;4955835;28;20039;-79
2022/10/31 08:30:25;;;;;;;59.35;37.42;;;9.50;99.90;;;;;;4957001;28;20049;-79
2022/10/31 08:33:04;;;;;;;63.25;37.33;;;9.60;99.90;;;;;;4957257;28;20042;-80
2022/10/31 08:35:34;;;;;;;63.38;37.72;;;9.60;99.90;;;;;;4951317;28;20050;-80
2022/10/31 08:38:01;;;;;;;52.75;35.72;;;9.70;99.90;;;;;;4946375;28;20098;-80
2022/10/31 08:40:32;;;;;;;54.00;35.83;;;9.80;99.90;;;;;;4952274;28;20067;-79
2022/10/31 08:43:03;;;;;;;63.38;36.92;;;9.70;99.90;;;;;;4955514;28;20434;-79
2022/10/31 08:45:31;;;;;;;47.00;32.13;;;9.80;99.90;;;;;;4965004;28;20097;-79
2022/10/31 08:47:59;;;;;;;61.97;38.25;;;9.90;99.90;;;;;;4958618;28;20121;-78
2022/10/31 08:50:26;;;;;;;64.72;40.60;;;9.90;99.90;;;;;;4956237;28;20057;-78
2022/10/31 08:52:54;;;;;;;70.95;41.80;;;9.90;99.90;;;;;;4957673;28;20046;-78
2022/10/31 08:55:20;;;;;;;53.60;38.30;;;9.90;99.90;;;;;;4953749;28;20132;-78
2022/10/31 08:57:46;;;;;;;72.80;41.97;;;9.90;99.90;;;;;;4955740;28;20089;-78
2022/10/31 09:00:13;;;;;;;77.88;44.70;;;10.00;99.90;;;;;;4962167;28;20441;-78
2022/10/31 09:02:44;;;;;;;82.35;49.10;;;10.10;99.90;;;;;;4955159;28;20038;-78
2022/10/31 09:05:10;;;;;;;80.30;47.28;;;10.10;99.90;;;;;;4952313;28;20039;-78
2022/10/31 09:07:36;;;;;;;82.40;50.17;;;10.30;99.90;;;;;;4953428;28;20037;-78
2022/10/31 09:10:02;;;;;;;76.95;48.90;;;10.40;99.90;;;;;;4962579;28;20077;-79
2022/10/31 09:12:29;;;;;;;63.17;44.97;;;10.40;99.90;;;;;;4950371;28;20035;-78
2022/10/31 09:14:55;;;;;;;66.85;44.60;;;10.60;99.90;;;;;;4965559;28;20046;-78
2022/10/31 09:17:21;;;;;;;62.22;42.45;;;10.60;99.90;;;;;;4948614;28;20069;-78
2022/10/31 09:19:47;;;;;;;60.10;41.58;;;10.70;99.90;;;;;;4958705;28;20552;-78
2022/10/31 09:22:14;;;;;;;57.08;39.22;;;10.80;99.90;;;;;;4953224;28;20036;-78
2022/10/31 09:24:40;;;;;;;47.03;36.63;;;10.90;99.90;;;;;;4954848;28;20130;-78
2022/10/31 09:27:08;;;;;;;51.45;36.95;;;10.90;99.90;;;;;;4954796;28;20039;-78
2022/10/31 09:29:34;;;;;;;56.28;38.50;;;11.00;99.90;;;;;;4952180;28;20043;-78
2022/10/31 09:32:01;;;;;;;59.55;39.03;;;11.10;99.90;;;;;;4954357;28;20038;-78
2022/10/31 09:34:27;;;;;;;45.85;36.13;;;11.10;99.90;;;;;;4938656;28;20078;-78
2022/10/31 09:36:53;;;;;;;56.58;39.25;;;11.20;99.90;;;;;;4937259;28;20043;-78
2022/10/31 09:39:20;;;;;;;51.95;38.97;;;11.40;99.90;;;;;;4941114;28;20757;-78
2022/10/31 09:42:25;;;;;;;54.28;40.45;;;11.40;99.90;;;;;;4943686;28;20039;-78
2022/10/31 09:45:15;;;;;;;49.88;36.97;;;11.50;99.90;;;;;;4875559;28;20056;-78
2022/10/31 09:48:20;;;;;;;44.20;35.00;;;11.60;99.90;;;;;;4960451;28;20046;-78
2022/10/31 09:51:03;;;;;;;61.75;40.00;;;11.50;99.90;;;;;;4939437;28;20065;-78
2022/10/31 09:53:57;;;;;;;51.25;38.78;;;11.60;99.90;;;;;;4937765;28;20123;-78
2022/10/31 09:56:26;;;;;;;53.72;39.65;;;11.70;99.90;;;;;;4935367;28;20813;-78
2022/10/31 09:59:00;;;;;;;54.88;40.20;;;11.70;99.90;;;;;;4967022;28;20046;-78
2022/10/31 10:01:34;;;;;;;65.88;41.92;;;11.80;99.90;;;;;;4939107;29;20065;-78
2022/10/31 10:04:29;;;;;;;53.05;38.38;;;11.90;99.90;;;;;;4943489;28;20050;-78
2022/10/31 10:06:56;;;;;;;52.55;38.05;;;12.00;99.90;;;;;;4947292;28;20038;-78
2022/10/31 10:09:26;;;;;;;59.22;39.67;;;12.10;99.90;;;;;;4945152;28;20039;-78
2022/10/31 10:12:24;;;;;;;52.60;37.33;;;12.20;99.90;;;;;;4941836;29;20066;-78
2022/10/31 10:15:13;;;;;;;62.67;41.70;;;12.40;99.90;;;;;;4945323;29;20533;-79
2022/10/31 10:17:45;;;;;;;58.70;43.35;;;12.60;99.90;;;;;;4941982;28;20035;-79
2022/10/31 10:20:30;;;;;;;57.55;42.22;;;12.80;99.90;;;;;;4943292;28;20039;-80
2022/10/31 10:23:36;;;;;;;54.40;40.95;;;13.00;99.90;;;;;;4947057;28;20034;-78
2022/10/31 10:26:15;;;;;;;40.58;33.03;;;13.30;99.90;;;;;;4920295;28;20046;-79
2022/10/31 10:28:57;;;;;;;37.83;31.15;;;13.40;99.90;;;;;;4949390;28;20037;-79
2022/10/31 10:31:33;;;;;;;42.15;32.67;;;13.50;99.90;;;;;;4940093;28;20031;-79
2022/10/31 10:34:12;;;;;;;37.45;31.08;;;13.70;99.90;;;;;;4950271;28;20066;-79
2022/10/31 10:36:45;;;;;;;29.38;25.60;;;13.90;99.90;;;;;;4947576;28;20046;-80
2022/10/31 10:39:18;;;;;;;34.28;25.83;;;14.00;99.90;;;;;;4941016;28;20042;-80
2022/10/31 10:43:18;;;;;;;29.67;23.73;;;14.00;99.90;;;;;;4940515;28;20418;-80
2022/10/31 10:47:40;;;;;;;26.40;21.83;;;14.20;99.90;;;;;;4948634;28;20054;-79
2022/10/31 10:50:24;;;;;;;23.75;21.23;;;14.20;99.90;;;;;;4943016;28;20039;-79
2022/10/31 10:53:20;;;;;;;23.70;20.38;;;14.20;99.90;;;;;;4940629;28;20043;-79
2022/10/31 10:56:11;;;;;;;22.65;20.20;;;14.40;99.90;;;;;;4941413;28;20043;-79
2022/10/31 10:58:39;;;;;;;24.27;20.58;;;14.30;99.90;;;;;;4939504;28;20039;-79
2022/10/31 11:01:14;;;;;;;24.35;19.50;;;14.40;99.90;;;;;;4954702;28;20049;-79
2022/10/31 11:03:42;;;;;;;22.70;19.67;;;14.40;99.90;;;;;;4952104;28;20101;-79
2022/10/31 11:06:25;;;;;;;24.48;21.30;;;14.40;99.90;;;;;;4938683;28;20078;-79
2022/10/31 11:08:54;;;;;;;23.48;19.70;;;14.40;99.90;;;;;;4940900;28;20494;-79
2022/10/31 11:11:27;;;;;;;26.45;20.95;;;14.40;99.90;;;;;;4939845;28;20506;-79
2022/10/31 11:14:02;;;;;;;;;;;14.50;99.90;;;;;;4940552;28;20082;-79
2022/10/31 11:16:35;;;;;;;22.40;19.17;;;14.40;99.90;;;;;;4932939;28;19996;-79
2022/10/31 11:19:14;;;;;;;19.40;17.27;;;14.50;99.90;;;;;;4941045;28;20039;-79
2022/10/31 11:21:47;;;;;;;17.70;15.27;;;14.50;99.90;;;;;;4941763;28;20390;-78
2022/10/31 11:24:20;;;;;;;20.10;16.00;;;14.60;99.90;;;;;;4941268;28;20101;-79
2022/10/31 11:26:48;;;;;;;19.10;16.57;;;14.60;99.90;;;;;;4954958;28;20035;-79
2022/10/31 11:29:17;;;;;;;17.60;15.80;;;14.50;99.90;;;;;;4936624;28;20045;-78
2022/10/31 11:31:46;;;;;;;20.08;16.35;;;14.60;99.90;;;;;;4962049;28;20050;-79
2022/10/31 11:34:33;;;;;;;23.85;16.42;;;14.70;99.90;;;;;;4940025;28;20101;-79
2022/10/31 11:37:26;;;;;;;17.02;13.90;;;14.80;99.90;;;;;;4946866;28;20035;-78
2022/10/31 11:39:57;;;;;;;17.65;13.95;;;14.80;99.90;;;;;;4941488;28;20089;-79
2022/10/31 11:42:31;;;;;;;15.45;12.27;;;14.90;99.90;;;;;;4944841;28;20072;-79
2022/10/31 11:44:57;;;;;;;;;;;15.00;99.90;;;;;;4937495;29;20070;-79
2022/10/31 11:47:46;;;;;;;19.13;14.00;;;15.00;99.90;;;;;;4965747;28;20368;-79
2022/10/31 11:50:23;;;;;;;14.70;11.93;;;15.10;99.90;;;;;;4942493;28;20047;-80
2022/10/31 11:52:53;;;;;;;18.38;11.88;;;15.20;99.90;;;;;;4957239;28;20043;-79
2022/10/31 11:55:45;;;;;;;14.95;11.70;;;15.20;99.90;;;;;;4943260;28;20108;-79
2022/10/31 11:58:25;;;;;;;13.65;12.07;;;15.20;99.90;;;;;;4950057;28;20035;-79
2022/10/31 12:00:58;;;;;;;15.63;12.40;;;15.20;99.90;;;;;;4945731;28;20034;-79
2022/10/31 12:03:43;;;;;;;15.45;12.02;;;15.20;99.90;;;;;;4940663;29;20039;-78
2022/10/31 12:06:31;;;;;;;15.15;11.93;;;15.20;99.90;;;;;;4944218;28;20039;-79
2022/10/31 12:09:00;;;;;;;14.05;11.68;;;15.20;99.90;;;;;;4940263;28;20043;-79
2022/10/31 12:11:37;;;;;;;11.95;10.52;;;15.20;99.90;;;;;;4929047;28;20039;-79
2022/10/31 12:14:21;;;;;;;14.38;11.88;;;15.20;99.90;;;;;;4947714;28;20057;-79
2022/10/31 12:17:12;;;;;;;17.52;12.38;;;15.20;99.90;;;;;;4943954;28;20042;-79
2022/10/31 12:20:34;;;;;;;14.80;11.27;;;15.20;99.90;;;;;;4937769;28;20038;-81
2022/10/31 12:23:46;;;;;;;14.20;10.02;;;15.20;99.90;;;;;;4937127;28;20035;-79
2022/10/31 12:26:33;;;;;;;15.32;10.43;;;15.20;99.90;;;;;;4971777;28;20394;-79
2022/10/31 12:29:50;;;;;;;13.18;10.60;;;15.20;99.90;;;;;;4960064;28;20535;-79
2022/10/31 12:33:19;;;;;;;15.18;11.65;;;15.20;99.90;;;;;;4899759;29;20055;-79
2022/10/31 12:36:18;;;;;;;13.60;11.35;;;15.20;99.90;;;;;;4842732;29;20136;-79
2022/10/31 12:38:58;;;;;;;14.20;11.30;;;15.10;99.90;;;;;;4879791;29;20412;-79
2022/10/31 12:41:50;;;;;;;15.77;12.13;;;15.10;99.90;;;;;;4926485;29;20051;-79
2022/10/31 12:44:47;;;;;;;13.55;10.63;;;15.10;99.90;;;;;;4936329;29;20540;-79
2022/10/31 12:47:58;;;;;;;13.18;11.05;;;15.20;99.90;;;;;;4950340;28;20144;-79
2022/10/31 12:50:36;;;;;;;13.15;11.20;;;15.20;99.90;;;;;;4937344;29;20047;-79
2022/10/31 12:53:20;;;;;;;12.63;11.32;;;15.30;99.90;;;;;;4939185;28;20052;-79
2022/10/31 12:56:20;;;;;;;13.55;10.48;;;15.40;99.90;;;;;;4931252;29;20082;-79
2022/10/31 12:59:15;;;;;;;11.45;9.60;;;15.50;99.90;;;;;;4933799;29;20043;-80
2022/10/31 13:02:09;;;;;;;11.55;9.80;;;15.70;99.90;;;;;;4917049;29;20050;-79
2022/10/31 13:04:45;;;;;;;13.50;10.15;;;15.90;99.90;;;;;;4945464;28;20039;-79